Time;durP1;ratioP1;P1;durP2;ratioP2;P2;SDS_P1;SDS_P2;PMS_P1;PMS_P2;Temp;Humidity;BMP_temperature;BMP_pressure;BME280_temperature;BME280_humidity;BME280_pressure;Samples;Min_cycle;Max_cycle;Signal;HPM_P1;HPM_P2
2021/12/17 00:00:58;;;;;;;152.65;54.35;;;10.00;96.30;;;;;;5026125;28;20829;-73
2021/12/17 00:03:48;;;;;;;145.43;51.72;;;9.90;97.00;;;;;;5023013;28;20426;-75
2021/12/17 00:06:29;;;;;;;140.70;53.63;;;9.80;98.50;;;;;;5032354;28;20491;-75
2021/12/17 00:08:57;;;;;;;138.10;51.65;;;9.80;98.70;;;;;;5032647;28;20375;-72
2021/12/17 00:11:23;;;;;;;145.07;53.40;;;9.80;99.20;;;;;;5032748;28;20411;-73
2021/12/17 00:13:50;;;;;;;139.50;51.90;;;9.80;99.10;;;;;;5014998;28;20427;-74
2021/12/17 00:16:21;;;;;;;138.70;51.05;;;9.80;99.70;;;;;;5026547;28;20829;-73
2021/12/17 00:19:08;;;;;;;134.45;50.22;;;9.80;99.70;;;;;;5035129;28;20402;-74
2021/12/17 00:48:42;;;;;;;135.25;51.63;;;9.80;98.00;;;;;;5028756;28;20474;-73
2021/12/17 00:53:41;;;;;;;144.63;53.65;;;9.80;99.00;;;;;;5012141;28;20411;-73
2021/12/17 00:56:06;;;;;;;147.90;53.85;;;9.80;99.30;;;;;;5026609;28;20411;-75
2021/12/17 00:58:32;;;;;;;137.90;52.25;;;9.80;99.90;;;;;;5034125;28;20389;-73
2021/12/17 01:00:57;;;;;;;143.10;53.22;;;9.80;99.90;;;;;;5026624;28;20398;-74
2021/12/17 01:03:23;;;;;;;135.35;51.10;;;9.80;99.30;;;;;;5027126;28;20401;-74
2021/12/17 01:05:49;;;;;;;133.85;50.03;;;9.90;99.90;;;;;;5012198;28;20457;-74
2021/12/17 01:08:15;;;;;;;141.00;52.10;;;10.00;97.00;;;;;;5011810;28;20801;-74
2021/12/17 01:10:49;;;;;;;139.80;53.20;;;10.10;95.80;;;;;;5011806;28;20392;-72
2021/12/17 01:13:14;;;;;;;142.13;52.73;;;10.00;95.50;;;;;;5024723;28;20453;-72
2021/12/17 01:15:42;;;;;;;152.75;53.17;;;9.90;96.20;;;;;;5013781;28;20446;-73
2021/12/17 01:18:13;;;;;;;143.95;52.97;;;9.80;97.80;;;;;;5028016;28;20391;-74
2021/12/17 01:37:00;;;;;;;146.50;53.30;;;9.90;97.90;;;;;;5011939;28;20419;-73
2021/12/17 01:42:05;;;;;;;138.07;52.17;;;9.70;99.90;;;;;;5025379;28;20410;-73
2021/12/17 01:44:32;;;;;;;135.93;50.92;;;9.80;99.90;;;;;;5030632;28;20475;-72
2021/12/17 01:46:58;;;;;;;145.02;52.72;;;9.90;99.90;;;;;;5027708;28;20395;-73
2021/12/17 02:00:03;;;;;;;131.23;50.35;;;9.80;99.90;;;;;;5027998;28;20452;-73
2021/12/17 02:02:33;;;;;;;125.53;49.47;;;9.80;99.70;;;;;;5010971;28;20423;-73
2021/12/17 02:04:58;;;;;;;124.13;50.25;;;10.00;97.50;;;;;;5011076;28;20869;-73
2021/12/17 02:07:25;;;;;;;127.23;50.00;;;10.00;95.20;;;;;;5016303;28;20452;-74
2021/12/17 02:12:54;;;;;;;126.38;48.88;;;10.00;94.90;;;;;;5023842;28;20451;-73
2021/12/17 02:31:48;;;;;;;123.38;48.15;;;10.00;98.20;;;;;;5023705;28;20395;-73
2021/12/17 02:37:06;;;;;;;128.32;48.13;;;10.10;94.60;;;;;;5015567;28;20422;-74
2021/12/17 02:47:25;;;;;;;138.23;50.73;;;9.80;98.60;;;;;;5022836;28;20443;-74
2021/12/17 02:49:51;;;;;;;131.98;49.65;;;9.70;99.40;;;;;;5027296;28;20395;-72
2021/12/17 02:52:17;;;;;;;121.97;47.10;;;9.70;99.90;;;;;;5032837;28;20908;-73
2021/12/17 02:54:43;;;;;;;130.40;47.90;;;9.70;99.90;;;;;;5033457;28;20954;-73
2021/12/17 02:57:11;;;;;;;115.60;47.40;;;9.90;99.90;;;;;;5026088;28;20393;-73
2021/12/17 02:59:37;;;;;;;117.45;46.33;;;10.00;98.00;;;;;;5014417;28;20424;-72
2021/12/17 03:02:07;;;;;;;118.85;46.67;;;10.20;92.30;;;;;;5016699;28;20392;-73
2021/12/17 03:04:35;;;;;;;116.95;45.58;;;10.30;89.30;;;;;;5014236;28;20385;-73
2021/12/17 03:07:01;;;;;;;101.40;43.50;;;10.40;88.00;;;;;;5019318;28;20402;-73
2021/12/17 03:09:46;;;;;;;123.43;49.40;;;10.20;88.50;;;;;;5033254;28;20474;-72
2021/12/17 03:12:22;;;;;;;128.85;48.50;;;10.10;89.40;;;;;;5021468;28;20417;-72
2021/12/17 03:14:56;;;;;;;111.70;45.85;;;10.10;93.30;;;;;;5035619;28;20442;-72
2021/12/17 03:17:46;;;;;;;114.27;46.97;;;10.30;89.40;;;;;;5031792;28;20917;-74
2021/12/17 03:25:35;;;;;;;115.97;46.10;;;10.50;86.00;;;;;;5033563;28;20391;-75
2021/12/17 03:28:01;;;;;;;118.10;46.88;;;10.50;85.40;;;;;;5026666;28;20487;-73
2021/12/17 03:30:27;;;;;;;130.13;47.72;;;10.40;85.20;;;;;;5033852;28;20426;-73
2021/12/17 03:32:52;;;;;;;138.65;48.70;;;10.30;85.30;;;;;;5026454;28;20410;-75
2021/12/17 03:35:18;;;;;;;128.73;48.13;;;10.10;89.10;;;;;;5023102;28;20909;-74
2021/12/17 03:37:43;;;;;;;123.27;47.23;;;10.30;88.90;;;;;;5030763;28;20492;-73
2021/12/17 03:40:13;;;;;;;124.83;46.13;;;10.50;87.10;;;;;;5033866;28;20395;-72
2021/12/17 03:42:45;;;;;;;118.82;45.85;;;10.70;82.50;;;;;;5031657;28;20426;-72
2021/12/17 03:45:11;;;;;;;122.60;47.00;;;10.70;80.60;;;;;;5033124;28;20391;-72
2021/12/17 03:47:37;;;;;;;140.70;49.60;;;10.60;81.10;;;;;;5023689;28;20741;-73
2021/12/17 03:50:03;;;;;;;135.98;50.90;;;10.30;84.60;;;;;;5023920;28;20460;-73
2021/12/17 03:52:29;;;;;;;132.85;49.75;;;10.20;90.50;;;;;;5032626;28;20479;-72
2021/12/17 03:54:54;;;;;;;139.20;51.50;;;10.20;94.40;;;;;;5032024;28;20764;-71
2021/12/17 03:57:21;;;;;;;137.03;48.63;;;10.10;93.70;;;;;;5029163;28;20487;-72
2021/12/17 03:59:47;;;;;;;141.30;51.65;;;10.00;97.20;;;;;;5013100;28;20435;-72
2021/12/17 04:02:13;;;;;;;146.38;52.47;;;10.00;98.00;;;;;;5016815;28;20391;-71
2021/12/17 04:04:38;;;;;;;144.07;51.65;;;10.00;98.30;;;;;;5024275;28;20391;-72
2021/12/17 04:07:04;;;;;;;138.07;50.03;;;10.10;98.40;;;;;;5032751;28;20760;-71
2021/12/17 04:09:31;;;;;;;136.20;50.72;;;10.40;92.00;;;;;;5014800;28;20440;-72
2021/12/17 04:11:57;;;;;;;151.80;54.50;;;10.30;90.80;;;;;;5020616;28;20442;-73
2021/12/17 04:14:32;;;;;;;169.02;55.95;;;10.00;95.60;;;;;;5035991;28;20413;-71
2021/12/17 04:17:06;;;;;;;163.55;55.13;;;9.80;99.90;;;;;;5033589;28;20414;-71
2021/12/17 04:19:32;;;;;;;175.27;56.80;;;9.70;99.90;;;;;;5024726;28;20537;-71
2021/12/17 04:21:57;;;;;;;162.73;54.60;;;9.70;99.90;;;;;;5032566;28;20427;-71
2021/12/17 04:24:23;;;;;;;164.13;56.55;;;9.70;99.90;;;;;;5032359;28;20383;-72
2021/12/17 04:26:49;;;;;;;162.65;55.25;;;9.60;99.90;;;;;;5032335;28;20433;-72
2021/12/17 04:29:16;;;;;;;158.35;54.92;;;9.60;99.90;;;;;;5027004;28;20396;-72
2021/12/17 04:31:41;;;;;;;152.55;53.97;;;9.70;99.90;;;;;;5016828;28;20478;-72
2021/12/17 04:34:08;;;;;;;160.63;53.75;;;9.80;99.90;;;;;;5030086;28;20503;-72
2021/12/17 04:36:36;;;;;;;157.77;55.65;;;9.70;99.90;;;;;;5030172;28;20419;-72
2021/12/17 04:39:02;;;;;;;162.23;55.47;;;9.70;99.90;;;;;;5028616;28;20393;-72
2021/12/17 04:44:12;;;;;;;181.45;55.55;;;9.70;99.90;;;;;;5012076;28;20947;-72
2021/12/17 04:46:45;;;;;;;174.35;56.95;;;9.80;99.90;;;;;;5024767;28;20710;-72
2021/12/17 04:57:32;;;;;;;157.23;55.35;;;9.90;99.90;;;;;;5012298;28;20399;-72
2021/12/17 05:00:18;;;;;;;173.20;56.37;;;10.10;99.90;;;;;;5031342;28;20732;-73
2021/12/17 05:02:48;;;;;;;151.02;53.85;;;10.40;98.20;;;;;;5030631;28;20797;-73
2021/12/17 05:05:18;;;;;;;153.40;53.97;;;10.60;89.50;;;;;;5024411;28;20458;-73
2021/12/17 05:07:50;;;;;;;150.13;54.25;;;10.70;87.10;;;;;;5030324;28;20465;-73
2021/12/17 05:18:25;;;;;;;172.75;56.22;;;10.60;89.50;;;;;;5024259;28;20408;-72
2021/12/17 05:21:00;;;;;;;164.90;57.53;;;10.50;92.40;;;;;;5011831;28;20395;-73
2021/12/17 05:23:33;;;;;;;169.25;58.28;;;10.40;91.60;;;;;;5011508;28;20505;-72
2021/12/17 05:26:00;;;;;;;166.13;58.17;;;10.40;93.30;;;;;;5011556;28;20381;-73
2021/12/17 05:28:26;;;;;;;196.68;61.33;;;10.20;95.50;;;;;;5024519;28;20509;-73
2021/12/17 05:30:52;;;;;;;198.30;61.37;;;10.00;99.90;;;;;;5020119;28;20401;-73
2021/12/17 05:33:20;;;;;;;188.90;58.07;;;10.10;99.90;;;;;;5015824;28;20824;-73
2021/12/17 05:35:47;;;;;;;177.25;58.00;;;10.10;99.90;;;;;;5009820;28;20482;-73
2021/12/17 05:38:14;;;;;;;164.10;57.28;;;10.30;99.90;;;;;;5011272;28;20400;-75
2021/12/17 05:40:43;;;;;;;161.27;57.45;;;10.20;99.90;;;;;;5011407;28;20750;-73
2021/12/17 05:43:09;;;;;;;163.07;53.85;;;10.30;98.80;;;;;;5015195;28;20407;-75
2021/12/17 05:45:48;;;;;;;162.13;54.17;;;10.40;95.60;;;;;;5016083;28;20390;-74
2021/12/17 05:48:20;;;;;;;145.93;52.90;;;10.50;91.20;;;;;;5031054;28;20421;-73
2021/12/17 05:50:47;;;;;;;145.77;51.25;;;10.60;89.90;;;;;;5027946;28;20442;-72
2021/12/17 05:53:13;;;;;;;158.73;54.33;;;10.50;91.50;;;;;;5030377;28;20852;-72
2021/12/17 05:55:39;;;;;;;139.55;51.15;;;10.40;93.80;;;;;;5023415;28;20407;-75
2021/12/17 05:58:06;;;;;;;138.88;50.50;;;10.40;92.00;;;;;;5033220;28;20470;-74
2021/12/17 06:00:33;;;;;;;143.43;51.38;;;10.30;94.00;;;;;;5031574;28;20394;-74
2021/12/17 06:03:00;;;;;;;148.40;52.25;;;10.30;93.30;;;;;;5031824;28;20426;-74
2021/12/17 06:05:27;;;;;;;142.57;52.50;;;10.30;94.30;;;;;;5012786;28;20401;-73
2021/12/17 06:07:53;;;;;;;158.25;53.30;;;10.20;95.50;;;;;;5011366;28;20506;-74
2021/12/17 06:10:19;;;;;;;146.50;52.20;;;10.20;98.00;;;;;;5026344;28;20457;-72
2021/12/17 06:12:45;;;;;;;156.02;54.38;;;10.20;98.10;;;;;;5029295;28;20395;-73
2021/12/17 06:15:13;;;;;;;153.25;53.47;;;10.20;95.50;;;;;;5029432;28;20410;-74
2021/12/17 06:17:39;;;;;;;151.50;52.10;;;10.20;96.80;;;;;;5033164;28;20421;-75
2021/12/17 06:20:07;;;;;;;144.10;51.50;;;10.30;94.00;;;;;;5022255;28;20396;-74
2021/12/17 06:22:34;;;;;;;137.95;48.55;;;10.20;94.70;;;;;;5015875;28;20399;-74
2021/12/17 06:25:00;;;;;;;145.70;53.70;;;10.20;94.20;;;;;;5033915;28;20465;-74
2021/12/17 06:27:27;;;;;;;139.68;49.88;;;10.10;95.40;;;;;;5036979;28;20391;-74
2021/12/17 06:29:53;;;;;;;144.75;50.53;;;10.10;96.40;;;;;;5035777;28;20406;-75
2021/12/17 06:32:20;;;;;;;144.23;52.10;;;10.00;97.30;;;;;;5033579;28;20412;-74
2021/12/17 06:34:46;;;;;;;140.57;51.60;;;10.00;98.80;;;;;;5017976;28;20413;-74
2021/12/17 06:37:12;;;;;;;142.70;50.72;;;10.00;99.00;;;;;;5034416;28;20399;-75
2021/12/17 06:39:38;;;;;;;154.98;54.25;;;10.00;99.90;;;;;;5021989;28;20395;-74
2021/12/17 06:42:04;;;;;;;149.77;52.30;;;10.00;99.90;;;;;;5014855;28;20957;-74
2021/12/17 06:44:31;;;;;;;146.40;52.25;;;10.00;99.90;;;;;;5021319;28;20399;-75
2021/12/17 06:47:09;;;;;;;144.80;51.20;;;10.00;99.90;;;;;;5021252;28;20912;-74
2021/12/17 06:55:02;;;;;;;131.55;48.28;;;10.10;99.90;;;;;;5022159;28;20400;-72
2021/12/17 06:58:38;;;;;;;130.73;49.22;;;10.10;99.40;;;;;;5012784;28;20416;-72
2021/12/17 07:00:37;;;;;;;139.43;50.00;;;10.10;99.60;;;;;;5014823;28;20404;-74
2021/12/17 07:06:03;;;;;;;140.10;49.10;;;10.00;99.90;;;;;;5028689;28;20486;-73
2021/12/17 07:11:36;;;;;;;132.60;47.25;;;10.00;99.90;;;;;;5032865;28;20395;-74
2021/12/17 07:21:59;;;;;;;133.20;46.08;;;9.90;99.90;;;;;;5032418;28;20395;-73
2021/12/17 07:33:06;;;;;;;138.02;44.83;;;9.60;99.90;;;;;;5014442;28;20424;-74
2021/12/17 07:35:43;;;;;;;149.82;47.25;;;9.50;99.90;;;;;;5023443;28;20409;-73
2021/12/17 07:40:53;;;;;;;153.02;43.92;;;9.50;99.90;;;;;;5032911;28;20448;-74
2021/12/17 07:43:27;;;;;;;150.55;46.30;;;9.50;99.90;;;;;;5031349;28;20387;-74
2021/12/17 07:45:53;;;;;;;149.52;46.92;;;9.50;99.90;;;;;;5022243;28;20792;-74
2021/12/17 07:48:20;;;;;;;139.93;45.20;;;9.50;99.90;;;;;;5020149;28;20399;-74
2021/12/17 07:50:46;;;;;;;138.13;44.30;;;9.50;99.90;;;;;;5028558;28;20405;-75
2021/12/17 07:53:12;;;;;;;124.35;41.92;;;9.60;99.90;;;;;;5024511;28;20402;-74
2021/12/17 07:55:37;;;;;;;135.80;44.35;;;9.60;99.90;;;;;;5023918;28;20903;-75
2021/12/17 07:58:03;;;;;;;115.53;41.27;;;9.70;99.90;;;;;;5031924;28;20398;-74
2021/12/17 08:00:29;;;;;;;120.00;40.28;;;9.70;99.90;;;;;;5031827;28;20990;-73
2021/12/17 08:02:55;;;;;;;114.35;40.03;;;9.70;99.90;;;;;;5032793;28;20481;-75
2021/12/17 08:05:21;;;;;;;107.93;38.67;;;9.70;99.90;;;;;;5028983;28;20400;-72
2021/12/17 08:07:46;;;;;;;119.43;40.10;;;9.80;99.90;;;;;;5022302;28;20395;-74
2021/12/17 08:10:12;;;;;;;107.80;36.57;;;9.70;99.90;;;;;;5021967;28;20405;-75
2021/12/17 08:12:40;;;;;;;105.83;38.43;;;9.80;99.90;;;;;;5024831;28;20408;-72
2021/12/17 08:15:13;;;;;;;114.63;38.90;;;9.80;99.90;;;;;;5014395;28;20423;-73
2021/12/17 08:25:49;;;;;;;97.57;35.38;;;10.00;99.00;;;;;;5026543;28;20407;-73
2021/12/17 08:28:17;;;;;;;86.38;34.90;;;9.90;99.30;;;;;;5028286;28;20864;-73
2021/12/17 08:30:47;;;;;;;88.47;32.97;;;10.00;98.50;;;;;;5029816;28;20457;-73
2021/12/17 08:33:18;;;;;;;83.45;33.00;;;10.00;98.90;;;;;;5019249;28;20487;-73
2021/12/17 08:35:44;;;;;;;80.70;29.77;;;10.00;99.90;;;;;;5019444;28;20411;-73
2021/12/17 08:38:10;;;;;;;71.25;29.20;;;10.10;95.50;;;;;;5026956;28;20869;-73
2021/12/17 08:40:38;;;;;;;76.13;29.13;;;10.00;94.90;;;;;;5023549;28;20410;-73
2021/12/17 08:43:07;;;;;;;74.63;30.00;;;10.00;95.40;;;;;;5025144;28;20502;-74
2021/12/17 08:45:32;;;;;;;74.50;29.45;;;9.90;96.80;;;;;;5022024;28;20396;-73
2021/12/17 08:47:59;;;;;;;66.93;27.80;;;9.90;98.10;;;;;;5026454;28;20405;-73
2021/12/17 08:50:25;;;;;;;69.03;27.73;;;9.90;98.60;;;;;;5027279;28;20388;-73
2021/12/17 08:52:51;;;;;;;74.88;28.95;;;9.90;99.40;;;;;;5024319;28;20400;-72
2021/12/17 08:55:17;;;;;;;74.70;29.85;;;9.90;98.90;;;;;;5028056;28;20407;-75
2021/12/17 08:57:42;;;;;;;70.13;28.58;;;9.90;99.90;;;;;;5028288;28;20403;-74
2021/12/17 09:00:12;;;;;;;73.20;28.83;;;9.90;99.00;;;;;;5027327;28;20485;-74
2021/12/17 09:02:39;;;;;;;68.07;27.58;;;10.00;97.20;;;;;;5029046;28;20385;-74
2021/12/17 09:05:05;;;;;;;69.18;27.45;;;10.00;96.60;;;;;;5021158;28;20403;-75
2021/12/17 09:07:31;;;;;;;61.80;26.20;;;10.00;96.60;;;;;;5020237;28;20424;-74
2021/12/17 09:09:57;;;;;;;60.65;26.63;;;10.00;97.70;;;;;;5026976;28;20391;-75
2021/12/17 09:12:23;;;;;;;62.85;27.15;;;10.00;96.80;;;;;;5022639;28;20817;-74
2021/12/17 09:14:48;;;;;;;62.47;26.80;;;10.10;95.70;;;;;;5027752;28;20410;-74
2021/12/17 09:17:14;;;;;;;62.23;26.07;;;10.10;93.60;;;;;;5023690;28;20462;-73
2021/12/17 09:19:40;;;;;;;67.90;29.35;;;10.10;92.70;;;;;;5025489;28;20399;-74
2021/12/17 09:22:06;;;;;;;68.18;28.52;;;10.20;95.50;;;;;;5029073;28;20395;-75
2021/12/17 09:24:32;;;;;;;63.83;28.60;;;10.10;91.90;;;;;;5027790;28;20395;-74
2021/12/17 09:26:58;;;;;;;66.28;28.95;;;10.20;91.50;;;;;;5027185;28;20403;-73
2021/12/17 09:29:24;;;;;;;73.40;29.33;;;10.20;89.80;;;;;;5031338;28;20501;-74
2021/12/17 09:31:49;;;;;;;70.68;28.70;;;10.10;90.10;;;;;;5030533;28;20412;-74
2021/12/17 09:34:15;;;;;;;70.75;29.27;;;10.00;90.80;;;;;;5033261;28;20914;-75
2021/12/17 09:36:41;;;;;;;67.97;30.43;;;10.10;92.20;;;;;;5029041;28;20403;-73
2021/12/17 09:39:06;;;;;;;70.23;29.77;;;10.10;92.80;;;;;;5026320;28;20441;-74
2021/12/17 09:41:32;;;;;;;66.77;30.23;;;10.10;92.80;;;;;;5018944;28;20526;-73
2021/12/17 09:43:57;;;;;;;69.97;29.70;;;10.10;91.20;;;;;;5025222;28;20391;-74
2021/12/17 09:46:23;;;;;;;73.80;32.13;;;10.10;92.80;;;;;;5025632;28;20414;-75
2021/12/17 09:48:49;;;;;;;79.20;30.98;;;10.10;91.10;;;;;;5021006;28;20486;-76
2021/12/17 09:51:18;;;;;;;69.03;29.85;;;10.10;93.20;;;;;;5028790;28;20440;-76
2021/12/17 09:53:44;;;;;;;76.68;31.70;;;10.20;92.20;;;;;;5038459;28;20501;-76
2021/12/17 09:56:10;;;;;;;73.15;32.92;;;10.30;91.50;;;;;;5025576;28;20574;-76
2021/12/17 09:58:35;;;;;;;76.93;31.97;;;10.20;92.60;;;;;;5032613;28;20537;-76
2021/12/17 10:01:02;;;;;;;71.80;31.42;;;10.40;90.70;;;;;;5032816;28;20391;-78
2021/12/17 10:03:28;;;;;;;93.75;42.35;;;10.40;88.00;;;;;;5029202;28;20485;-76
2021/12/17 10:05:54;;;;;;;69.43;32.83;;;10.50;91.00;;;;;;5032636;28;20402;-75
2021/12/17 10:08:22;;;;;;;76.30;32.73;;;10.50;84.10;;;;;;5022802;28;20740;-76
2021/12/17 10:10:49;;;;;;;84.40;33.58;;;10.50;84.80;;;;;;5029265;28;20407;-76
2021/12/17 10:13:23;;;;;;;80.90;33.80;;;10.50;87.20;;;;;;5039341;28;20417;-74
2021/12/17 10:15:52;;;;;;;83.07;33.75;;;10.60;84.10;;;;;;5033404;28;20466;-78
2021/12/17 10:18:34;;;;;;;80.53;33.42;;;10.60;84.80;;;;;;5019028;28;20438;-76
2021/12/17 10:21:09;;;;;;;76.55;33.90;;;10.50;84.70;;;;;;5023733;28;20413;-77
2021/12/17 10:23:36;;;;;;;82.28;34.45;;;10.50;85.90;;;;;;5010780;28;20397;-74
2021/12/17 10:26:03;;;;;;;86.43;35.97;;;10.50;87.10;;;;;;5027672;28;20428;-76
2021/12/17 10:28:30;;;;;;;74.10;32.67;;;10.50;91.10;;;;;;5029516;28;20399;-75
2021/12/17 10:30:56;;;;;;;77.40;33.33;;;10.60;89.10;;;;;;5021099;28;20410;-75
2021/12/17 10:33:25;;;;;;;78.72;34.47;;;10.70;84.70;;;;;;5019334;28;20870;-74
2021/12/17 10:35:53;;;;;;;74.00;33.45;;;10.60;86.60;;;;;;5012532;28;20413;-74
2021/12/17 10:38:25;;;;;;;76.90;33.55;;;10.70;85.00;;;;;;5028789;28;20403;-74
2021/12/17 10:41:09;;;;;;;80.57;34.28;;;10.70;84.90;;;;;;5030209;28;20387;-74
2021/12/17 10:43:40;;;;;;;70.27;31.53;;;10.70;88.00;;;;;;5029637;28;20414;-74
2021/12/17 10:46:32;;;;;;;72.95;31.98;;;10.80;84.90;;;;;;5029295;28;20398;-74
2021/12/17 10:54:03;;;;;;;60.42;28.63;;;11.00;79.00;;;;;;5028454;28;20765;-74
2021/12/17 10:56:35;;;;;;;59.65;29.05;;;11.00;78.20;;;;;;5028654;28;20449;-75
2021/12/17 10:59:09;;;;;;;59.63;27.10;;;11.10;77.60;;;;;;5026686;28;20403;-75
2021/12/17 11:01:48;;;;;;;56.95;27.25;;;11.10;76.30;;;;;;5024701;28;20900;-74
2021/12/17 11:04:26;;;;;;;48.55;23.55;;;11.20;75.50;;;;;;5012825;28;20409;-75
2021/12/17 11:06:58;;;;;;;41.03;21.80;;;11.30;73.40;;;;;;5030633;28;20805;-75
2021/12/17 11:09:53;;;;;;;47.67;23.27;;;11.20;72.20;;;;;;5025699;28;20415;-77
2021/12/17 11:12:32;;;;;;;44.88;23.25;;;11.20;73.80;;;;;;5023515;28;20409;-75
2021/12/17 11:15:21;;;;;;;50.15;22.90;;;11.10;75.10;;;;;;5026853;28;20407;-75
2021/12/17 11:17:49;;;;;;;51.28;24.67;;;11.10;74.50;;;;;;5030804;28;20893;-75
2021/12/17 11:20:17;;;;;;;39.15;20.73;;;11.10;76.90;;;;;;5029012;28;20450;-73
2021/12/17 11:22:44;;;;;;;41.22;21.52;;;11.10;75.30;;;;;;5029994;28;20418;-74
2021/12/17 11:25:11;;;;;;;40.92;21.05;;;11.10;77.20;;;;;;5028550;28;20412;-75
2021/12/17 11:27:37;;;;;;;44.33;21.50;;;11.20;74.90;;;;;;5027272;28;21163;-74
2021/12/17 11:30:10;;;;;;;41.33;20.70;;;11.10;75.60;;;;;;5032364;28;20414;-74
2021/12/17 11:32:35;;;;;;;38.03;19.65;;;11.00;75.50;;;;;;5031280;28;20403;-74
2021/12/17 11:35:03;;;;;;;42.07;19.93;;;10.90;76.50;;;;;;5032085;28;20415;-74
2021/12/17 11:37:30;;;;;;;38.28;18.75;;;10.90;79.30;;;;;;5026739;28;20399;-73
2021/12/17 11:40:00;;;;;;;36.40;18.90;;;11.00;78.00;;;;;;5024287;28;20407;-75
2021/12/17 11:42:42;;;;;;;34.73;18.20;;;11.00;76.40;;;;;;5026219;28;20486;-74
2021/12/17 11:45:23;;;;;;;34.05;17.85;;;10.90;76.90;;;;;;5022508;28;20434;-74
2021/12/17 11:47:50;;;;;;;28.23;15.80;;;11.00;77.10;;;;;;5024694;28;20462;-74
2021/12/17 11:50:17;;;;;;;31.52;15.63;;;10.80;74.50;;;;;;5031175;28;20399;-74
2021/12/17 11:52:44;;;;;;;28.55;15.73;;;10.80;76.90;;;;;;5031766;28;20432;-74
2021/12/17 11:55:36;;;;;;;31.57;16.50;;;10.80;78.70;;;;;;5033126;28;20411;-74
2021/12/17 11:58:10;;;;;;;35.07;17.90;;;10.70;77.60;;;;;;5023278;28;20401;-74
2021/12/17 12:00:45;;;;;;;32.35;17.80;;;10.70;80.80;;;;;;5032219;28;20536;-75
2021/12/17 12:03:23;;;;;;;34.25;16.70;;;10.70;82.90;;;;;;5025292;28;20503;-74
2021/12/17 12:05:54;;;;;;;40.65;20.95;;;10.70;82.00;;;;;;5033385;28;20737;-74
2021/12/17 12:08:24;;;;;;;43.55;21.88;;;10.70;82.40;;;;;;5028160;28;20461;-74
2021/12/17 12:11:12;;;;;;;44.40;23.15;;;10.70;83.20;;;;;;5032781;28;20472;-74
2021/12/17 12:13:50;;;;;;;44.05;22.10;;;10.70;83.20;;;;;;5026647;28;20436;-74
2021/12/17 12:16:18;;;;;;;56.15;26.15;;;10.70;84.10;;;;;;5031138;28;20505;-75
2021/12/17 12:18:54;;;;;;;48.25;23.27;;;10.70;82.90;;;;;;5033967;28;20407;-73
2021/12/17 12:21:23;;;;;;;45.55;23.23;;;10.70;83.50;;;;;;5032490;28;20391;-73
2021/12/17 12:24:09;;;;;;;40.85;22.85;;;10.70;82.80;;;;;;5023776;28;20502;-73
2021/12/17 12:26:50;;;;;;;46.85;24.02;;;10.80;82.80;;;;;;5033119;28;20457;-74
2021/12/17 12:29:21;;;;;;;43.10;22.90;;;10.80;80.80;;;;;;5033094;28;20391;-74
2021/12/17 12:31:50;;;;;;;42.45;23.42;;;10.80;80.00;;;;;;5026089;28;20396;-74
2021/12/17 12:34:19;;;;;;;55.33;24.80;;;10.80;78.70;;;;;;5032105;28;20407;-74
2021/12/17 12:37:18;;;;;;;46.30;24.53;;;10.80;78.50;;;;;;5030116;28;20407;-74
2021/12/17 12:39:48;;;;;;;49.40;25.08;;;10.80;79.10;;;;;;5031792;28;20875;-75
2021/12/17 12:42:17;;;;;;;45.45;24.70;;;10.70;80.40;;;;;;5028177;28;20835;-73
2021/12/17 12:44:46;;;;;;;47.22;25.45;;;10.70;77.70;;;;;;5028166;28;20391;-73
2021/12/17 12:47:20;;;;;;;50.58;25.10;;;10.70;80.20;;;;;;5025605;28;20405;-74
2021/12/17 12:50:10;;;;;;;48.72;24.60;;;10.70;80.10;;;;;;5025148;28;20403;-75
2021/12/17 12:53:05;;;;;;;46.42;24.40;;;10.80;77.10;;;;;;5025795;28;20504;-75
2021/12/17 12:55:35;;;;;;;43.30;22.58;;;10.80;77.30;;;;;;5025457;28;20847;-74
2021/12/17 12:58:08;;;;;;;48.92;25.52;;;10.80;76.10;;;;;;5030393;28;20444;-74
2021/12/17 13:00:45;;;;;;;50.47;25.80;;;10.70;78.30;;;;;;5027308;28;20404;-74
2021/12/17 13:03:14;;;;;;;48.38;24.58;;;10.70;77.40;;;;;;5028203;28;20402;-74
2021/12/17 13:05:47;;;;;;;44.42;24.83;;;10.70;77.70;;;;;;5023454;28;20750;-75
2021/12/17 13:08:15;;;;;;;41.80;22.75;;;10.70;79.20;;;;;;5021141;28;20414;-74
2021/12/17 13:10:49;;;;;;;41.22;23.02;;;10.70;76.90;;;;;;5018977;28;20400;-73
2021/12/17 13:13:29;;;;;;;41.05;22.92;;;10.70;76.30;;;;;;5019266;28;20799;-74
2021/12/17 13:21:42;;;;;;;42.03;22.33;;;10.60;76.80;;;;;;5021246;28;20850;-75
2021/12/17 13:24:16;;;;;;;37.10;20.10;;;10.60;76.60;;;;;;5016756;28;20434;-74
2021/12/17 13:26:48;;;;;;;35.60;18.88;;;10.60;75.20;;;;;;5019074;28;20442;-74
2021/12/17 13:29:24;;;;;;;38.90;21.27;;;10.50;76.20;;;;;;5023752;28;20418;-75
2021/12/17 13:31:56;;;;;;;37.80;19.20;;;10.50;78.80;;;;;;5029551;28;20391;-73
2021/12/17 13:34:44;;;;;;;39.58;21.27;;;10.50;77.60;;;;;;5016809;28;20792;-74
2021/12/17 13:37:20;;;;;;;41.47;22.20;;;10.50;78.60;;;;;;5025359;28;20402;-75
2021/12/17 13:39:49;;;;;;;39.97;21.67;;;10.50;78.70;;;;;;5031386;28;20500;-74
2021/12/17 13:42:39;;;;;;;36.45;19.90;;;10.60;80.20;;;;;;5020610;28;20456;-73
2021/12/17 13:45:07;;;;;;;31.70;18.93;;;10.60;78.40;;;;;;5023232;28;20419;-75
2021/12/17 13:47:35;;;;;;;32.35;18.80;;;10.60;74.40;;;;;;5012246;28;20742;-75
2021/12/17 13:50:09;;;;;;;32.63;19.70;;;10.60;74.50;;;;;;5017121;28;20397;-75
2021/12/17 13:52:38;;;;;;;28.25;17.40;;;10.70;75.40;;;;;;5011750;28;20913;-74
2021/12/17 13:55:09;;;;;;;26.00;15.90;;;10.80;73.20;;;;;;5028071;28;20420;-74
2021/12/17 13:57:35;;;;;;;25.70;16.60;;;10.70;70.40;;;;;;5033770;28;20924;-75
2021/12/17 14:00:16;;;;;;;27.13;16.90;;;10.70;72.80;;;;;;5032479;28;20401;-75
2021/12/17 14:02:44;;;;;;;26.92;16.80;;;10.70;74.60;;;;;;5027608;28;20403;-76
2021/12/17 14:05:17;;;;;;;24.17;16.07;;;10.70;73.20;;;;;;5025012;28;20403;-74
2021/12/17 14:07:49;;;;;;;26.20;16.00;;;10.70;71.40;;;;;;5023593;28;20453;-75
2021/12/17 14:10:17;;;;;;;32.53;18.15;;;10.60;72.70;;;;;;5021301;28;20804;-75
2021/12/17 14:12:44;;;;;;;24.90;15.13;;;10.50;76.90;;;;;;5018472;28;20420;-75
2021/12/17 14:15:12;;;;;;;24.65;15.45;;;10.60;72.70;;;;;;5022353;28;20418;-76
2021/12/17 14:17:42;;;;;;;25.05;15.32;;;10.60;72.70;;;;;;5021074;28;20814;-75
2021/12/17 14:20:17;;;;;;;23.50;14.50;;;10.60;73.20;;;;;;5019529;28;20921;-74
2021/12/17 14:22:48;;;;;;;20.20;14.32;;;10.60;71.90;;;;;;5017994;28;20545;-75
2021/12/17 14:25:39;;;;;;;18.67;12.80;;;10.60;70.10;;;;;;5031403;28;20437;-75
2021/12/17 14:28:10;;;;;;;19.58;13.60;;;10.60;68.00;;;;;;5032059;28;20759;-74
2021/12/17 14:30:36;;;;;;;19.43;12.97;;;10.60;68.30;;;;;;5031408;28;20395;-74
2021/12/17 14:33:22;;;;;;;20.60;13.60;;;10.60;68.40;;;;;;5025907;28;20866;-74
2021/12/17 14:35:49;;;;;;;16.80;12.18;;;10.60;66.50;;;;;;5011065;28;20475;-73
2021/12/17 14:38:17;;;;;;;18.50;12.00;;;10.60;64.80;;;;;;5011707;28;20482;-74
2021/12/17 14:40:52;;;;;;;22.60;13.65;;;10.60;57.30;;;;;;5028630;28;20444;-74
2021/12/17 14:43:24;;;;;;;19.77;13.10;;;10.50;58.90;;;;;;5035016;28;20394;-73
2021/12/17 14:45:58;;;;;;;19.65;13.98;;;10.50;58.30;;;;;;5023190;28;20393;-74
2021/12/17 14:48:37;;;;;;;23.75;15.00;;;10.50;59.50;;;;;;5016436;28;20458;-75
2021/12/17 15:04:42;;;;;;;12.27;9.50;;;10.10;58.60;;;;;;5034470;28;20558;-74
2021/12/17 15:07:07;;;;;;;12.82;8.65;;;10.30;57.50;;;;;;5034093;28;20406;-73
2021/12/17 15:09:35;;;;;;;12.40;9.43;;;10.40;54.50;;;;;;5033673;28;20406;-74
2021/12/17 15:12:12;;;;;;;15.27;9.02;;;10.50;53.60;;;;;;5021019;28;20491;-74
2021/12/17 15:14:38;;;;;;;13.60;9.80;;;10.50;54.70;;;;;;5018728;28;20713;-75
2021/12/17 15:17:04;;;;;;;19.48;10.30;;;10.50;56.30;;;;;;5031916;28;20769;-74
2021/12/17 15:19:30;;;;;;;16.17;10.45;;;10.40;56.60;;;;;;5033277;28;20395;-73
2021/12/17 15:21:56;;;;;;;19.10;10.80;;;10.30;57.10;;;;;;5031903;28;20413;-74
2021/12/17 15:24:21;;;;;;;16.43;10.37;;;10.30;57.40;;;;;;5033559;28;20793;-74
2021/12/17 15:26:47;;;;;;;14.37;10.23;;;10.20;55.80;;;;;;5033388;28;20494;-74
2021/12/17 15:29:13;;;;;;;15.53;10.63;;;10.10;55.60;;;;;;5028034;28;20954;-74
2021/12/17 15:31:38;;;;;;;13.53;10.30;;;10.20;54.00;;;;;;5025037;28;20433;-73
2021/12/17 15:34:04;;;;;;;15.57;11.23;;;10.10;55.90;;;;;;5031368;28;20407;-73
2021/12/17 15:36:29;;;;;;;15.38;10.32;;;9.80;57.10;;;;;;5031733;28;20404;-74